Time;durP1;ratioP1;P1;durP2;ratioP2;P2;SDS_P1;SDS_P2;PMS_P1;PMS_P2;Temp;Humidity;BMP_temperature;BMP_pressure;BME280_temperature;BME280_humidity;BME280_pressure;Samples;Min_cycle;Max_cycle;Signal;HPM_P1;HPM_P2
2022/06/10 00:01:58;;;;;;;11.57;2.97;;;14.20;99.90;;;;;;5074313;28;20366;-68
2022/06/10 00:04:23;;;;;;;14.52;2.70;;;14.20;99.90;;;;;;5063245;28;20028;-65
2022/06/10 00:06:49;;;;;;;11.70;3.15;;;14.20;99.90;;;;;;5054618;28;20336;-64
2022/06/10 00:09:16;;;;;;;10.85;2.78;;;14.20;99.90;;;;;;5051292;28;20155;-63
2022/06/10 00:11:42;;;;;;;13.95;2.35;;;14.10;99.90;;;;;;5034639;28;20029;-65
2022/06/10 00:14:08;;;;;;;14.82;3.10;;;14.10;99.90;;;;;;5034605;28;20029;-63
2022/06/10 00:16:34;;;;;;;16.05;2.83;;;14.10;99.90;;;;;;5040398;28;20020;-65
2022/06/10 00:18:59;;;;;;;20.50;3.17;;;14.10;99.90;;;;;;5059628;28;20029;-65
2022/06/10 00:21:25;;;;;;;18.88;3.35;;;14.10;99.90;;;;;;5060052;28;20036;-65
2022/06/10 00:23:51;;;;;;;13.20;2.85;;;14.10;99.90;;;;;;5065372;28;20025;-66
2022/06/10 00:26:17;;;;;;;14.25;3.55;;;14.10;99.90;;;;;;5058724;28;20033;-67
2022/06/10 00:28:45;;;;;;;13.95;3.15;;;14.00;99.90;;;;;;5065002;28;20437;-63
2022/06/10 00:31:11;;;;;;;20.73;3.42;;;14.00;99.90;;;;;;5055238;28;20051;-64
2022/06/10 00:33:37;;;;;;;11.82;2.45;;;14.00;99.90;;;;;;5067394;28;20028;-65
2022/06/10 00:36:03;;;;;;;12.35;3.00;;;14.00;99.90;;;;;;5057988;28;20013;-65
2022/06/10 00:38:29;;;;;;;13.10;3.03;;;14.00;99.90;;;;;;5067562;28;20028;-64
2022/06/10 00:40:56;;;;;;;15.77;3.13;;;14.00;99.90;;;;;;5056828;28;20124;-66
2022/06/10 00:43:26;;;;;;;14.52;3.40;;;14.00;99.90;;;;;;5068641;28;20095;-65
2022/06/10 00:46:05;;;;;;;13.85;3.00;;;14.10;99.90;;;;;;5052511;28;20742;-64
2022/06/10 00:48:54;;;;;;;15.95;3.22;;;14.20;99.90;;;;;;5049114;28;20025;-68
2022/06/10 00:51:36;;;;;;;15.45;3.10;;;14.30;99.90;;;;;;5037837;28;20032;-65
2022/06/10 00:54:16;;;;;;;11.10;2.38;;;14.30;99.90;;;;;;5053256;28;20021;-66
2022/06/10 00:56:49;;;;;;;11.65;2.58;;;14.40;99.90;;;;;;5051193;28;20060;-64
2022/06/10 00:59:25;;;;;;;14.30;4.05;;;14.50;99.90;;;;;;5052796;28;20105;-65
2022/06/10 01:01:54;;;;;;;8.75;2.55;;;14.50;99.90;;;;;;5053112;28;20033;-67
2022/06/10 01:04:20;;;;;;;10.43;2.85;;;14.60;99.90;;;;;;5052102;28;20028;-64
2022/06/10 01:06:46;;;;;;;15.70;2.83;;;14.60;99.90;;;;;;5053377;28;20029;-66
2022/06/10 01:09:12;;;;;;;13.75;2.78;;;14.70;99.90;;;;;;5052902;28;20044;-64
2022/06/10 01:12:02;;;;;;;12.43;2.95;;;14.70;99.90;;;;;;5053286;28;20079;-64
2022/06/10 01:14:44;;;;;;;11.38;2.50;;;14.70;99.90;;;;;;5053198;28;20032;-63
2022/06/10 01:17:31;;;;;;;14.73;2.75;;;14.80;99.90;;;;;;5053464;28;20025;-64
2022/06/10 01:20:06;;;;;;;16.90;2.53;;;14.80;99.90;;;;;;5053184;28;20147;-64
2022/06/10 01:22:56;;;;;;;14.68;2.70;;;14.90;99.90;;;;;;5053315;28;20033;-64
2022/06/10 01:25:52;;;;;;;10.13;2.40;;;14.90;99.90;;;;;;5048586;28;20301;-62
2022/06/10 01:28:44;;;;;;;10.85;2.90;;;14.90;99.90;;;;;;5039479;28;20028;-64
2022/06/10 01:31:26;;;;;;;14.05;2.83;;;14.90;99.90;;;;;;5036300;28;20049;-65
2022/06/10 01:34:12;;;;;;;12.32;3.13;;;15.00;99.90;;;;;;5054549;28;20028;-64
2022/06/10 01:36:54;;;;;;;11.90;3.42;;;15.00;99.90;;;;;;5053920;28;20450;-63
2022/06/10 01:39:23;;;;;;;10.18;3.25;;;15.00;99.90;;;;;;5054033;28;20147;-67
2022/06/10 01:42:22;;;;;;;10.45;2.10;;;15.10;99.90;;;;;;5068554;28;20584;-64
2022/06/10 01:45:22;;;;;;;6.32;2.38;;;15.10;99.90;;;;;;5063527;28;20033;-64
2022/06/10 01:47:58;;;;;;;6.60;2.30;;;15.10;99.90;;;;;;5055981;28;20024;-65
2022/06/10 01:50:46;;;;;;;7.13;2.08;;;15.10;99.90;;;;;;5064588;28;20045;-67
2022/06/10 01:53:42;;;;;;;10.75;2.25;;;15.10;99.90;;;;;;5064160;28;20502;-64
2022/06/10 01:56:23;;;;;;;9.57;2.03;;;15.20;99.90;;;;;;5043172;28;20519;-64
2022/06/10 01:59:01;;;;;;;14.65;2.80;;;15.20;99.90;;;;;;5061563;28;20056;-68
2022/06/10 02:01:32;;;;;;;11.02;2.35;;;15.20;99.90;;;;;;5068147;28;20042;-62
2022/06/10 02:04:19;;;;;;;12.07;2.53;;;15.30;99.90;;;;;;5040661;28;20008;-67
2022/06/10 02:06:53;;;;;;;11.75;2.40;;;15.30;99.90;;;;;;5068326;28;20031;-65
2022/06/10 02:09:24;;;;;;;11.00;2.33;;;15.30;99.90;;;;;;5062511;28;20462;-64
2022/06/10 02:11:57;;;;;;;10.33;2.47;;;15.40;99.90;;;;;;5058836;28;20358;-64
2022/06/10 02:14:38;;;;;;;8.75;2.47;;;15.40;99.90;;;;;;5051164;28;20043;-64
2022/06/10 02:17:06;;;;;;;7.13;2.20;;;15.50;99.90;;;;;;5050861;28;20017;-64
2022/06/10 02:19:39;;;;;;;10.25;2.13;;;15.50;99.90;;;;;;5051434;28;20025;-64
2022/06/10 02:22:13;;;;;;;8.07;2.92;;;15.60;99.90;;;;;;5051337;28;20068;-65
2022/06/10 02:25:01;;;;;;;13.43;2.97;;;15.60;99.90;;;;;;5051185;28;20450;-64
2022/06/10 02:27:37;;;;;;;11.70;2.97;;;15.70;99.90;;;;;;5050041;28;20028;-63
2022/06/10 02:30:29;;;;;;;9.88;3.05;;;15.70;99.90;;;;;;5050586;28;20439;-63
2022/06/10 02:32:57;;;;;;;9.82;2.30;;;15.70;99.90;;;;;;5040745;28;20036;-64
2022/06/10 02:35:27;;;;;;;10.10;2.72;;;15.60;99.90;;;;;;5049704;28;20037;-64
2022/06/10 02:38:12;;;;;;;9.88;3.13;;;15.60;99.90;;;;;;5051292;28;20036;-64
2022/06/10 02:40:47;;;;;;;17.42;3.08;;;15.50;99.90;;;;;;5047188;28;20466;-67
2022/06/10 02:43:35;;;;;;;6.47;2.10;;;15.40;99.90;;;;;;5050960;28;20041;-68
2022/06/10 02:46:10;;;;;;;13.15;3.65;;;15.40;99.90;;;;;;5048519;28;20098;-65
2022/06/10 02:49:00;;;;;;;9.00;2.58;;;15.40;99.90;;;;;;5051470;28;20079;-66
2022/06/10 02:51:29;;;;;;;11.95;2.83;;;15.40;99.90;;;;;;5050802;28;20025;-64
2022/06/10 02:53:55;;;;;;;14.98;3.35;;;15.40;99.90;;;;;;5051651;28;20402;-64
2022/06/10 02:56:24;;;;;;;15.48;3.45;;;15.40;99.90;;;;;;5055476;28;20086;-64
2022/06/10 03:02:13;;;;;;;13.07;2.60;;;15.40;99.90;;;;;;5054612;28;20040;-64
2022/06/10 03:04:48;;;;;;;9.68;2.90;;;15.50;99.90;;;;;;5055923;28;20056;-65
2022/06/10 03:07:34;;;;;;;14.30;2.92;;;15.50;99.90;;;;;;5054788;28;20063;-63
2022/06/10 03:10:23;;;;;;;9.32;2.70;;;15.50;99.90;;;;;;5053077;28;20067;-63
2022/06/10 03:13:09;;;;;;;9.93;3.88;;;15.50;99.90;;;;;;5054290;28;20474;-64
2022/06/10 03:15:52;;;;;;;8.48;2.20;;;15.50;99.90;;;;;;5054296;28;20017;-66
2022/06/10 03:18:39;;;;;;;9.07;3.22;;;15.50;99.90;;;;;;5048327;28;20057;-64
2022/06/10 03:21:05;;;;;;;15.57;3.55;;;15.60;99.90;;;;;;5053489;28;20075;-64
2022/06/10 03:23:58;;;;;;;16.05;4.10;;;15.60;99.90;;;;;;5053258;28;20067;-64
2022/06/10 03:26:40;;;;;;;19.05;3.47;;;15.60;99.90;;;;;;5041908;28;20040;-68
2022/06/10 03:29:17;;;;;;;15.87;4.03;;;15.60;99.90;;;;;;5053476;28;20020;-67
2022/06/10 03:31:50;;;;;;;13.70;3.20;;;15.60;99.90;;;;;;5053414;28;20486;-65
2022/06/10 03:34:31;;;;;;;10.40;3.17;;;15.50;99.90;;;;;;5054614;28;20020;-63
2022/06/10 03:36:59;;;;;;;11.47;3.27;;;15.50;99.90;;;;;;5054502;28;20030;-63
2022/06/10 03:39:25;;;;;;;13.43;3.97;;;15.50;99.90;;;;;;5054207;28;20072;-63
2022/06/10 03:42:16;;;;;;;12.20;3.10;;;15.40;99.90;;;;;;5054265;28;20486;-65
2022/06/10 03:44:44;;;;;;;14.60;3.08;;;15.40;99.90;;;;;;5052752;28;20017;-64
2022/06/10 03:47:16;;;;;;;11.05;4.07;;;15.30;99.90;;;;;;5054451;28;20036;-65
2022/06/10 03:49:46;;;;;;;11.80;4.03;;;15.30;99.90;;;;;;5054836;28;20044;-63
2022/06/10 03:52:20;;;;;;;14.30;3.92;;;15.20;99.90;;;;;;5054814;28;20451;-66
2022/06/10 03:54:46;;;;;;;11.98;4.15;;;15.20;99.90;;;;;;5054943;28;20095;-67
2022/06/10 03:57:13;;;;;;;10.30;3.65;;;15.10;99.90;;;;;;5054896;28;20462;-65
2022/06/10 03:59:39;;;;;;;14.57;4.40;;;15.10;99.90;;;;;;5055060;28;20039;-67
2022/06/10 04:02:04;;;;;;;15.25;4.15;;;15.10;99.90;;;;;;5054424;28;20458;-64
2022/06/10 04:04:30;;;;;;;11.07;3.83;;;15.10;99.90;;;;;;5054205;28;20390;-66
2022/06/10 04:06:56;;;;;;;18.33;4.47;;;15.10;99.90;;;;;;5053844;28;20086;-65
2022/06/10 04:09:21;;;;;;;12.95;4.22;;;15.10;99.90;;;;;;5054672;28;20021;-66
2022/06/10 04:11:47;;;;;;;12.52;3.53;;;15.10;99.90;;;;;;5050464;28;20332;-64
2022/06/10 04:14:12;;;;;;;17.15;4.88;;;15.10;99.90;;;;;;5051988;28;20094;-65
2022/06/10 04:16:38;;;;;;;15.68;4.10;;;15.10;99.90;;;;;;5053919;28;20649;-66
2022/06/10 04:19:03;;;;;;;16.17;4.82;;;15.10;99.90;;;;;;5054394;28;20338;-67
2022/06/10 04:21:29;;;;;;;11.73;4.20;;;15.10;99.90;;;;;;5053912;28;20703;-65
2022/06/10 04:23:54;;;;;;;12.23;4.15;;;15.20;99.90;;;;;;5063371;28;20020;-65
2022/06/10 04:26:20;;;;;;;18.30;5.63;;;15.20;99.90;;;;;;5073552;28;20028;-66
2022/06/10 04:28:46;;;;;;;14.80;3.75;;;15.30;99.90;;;;;;5071441;28;20331;-64
2022/06/10 04:31:12;;;;;;;16.73;5.80;;;15.30;99.90;;;;;;5052075;28;20400;-65
2022/06/10 04:33:37;;;;;;;17.35;4.75;;;15.30;99.90;;;;;;5053774;28;20099;-65
2022/06/10 04:36:03;;;;;;;16.13;4.10;;;15.40;99.90;;;;;;5053684;28;20033;-66
2022/06/10 04:38:29;;;;;;;20.83;4.63;;;15.50;99.90;;;;;;5054118;28;20626;-64
2022/06/10 04:40:54;;;;;;;11.68;3.33;;;15.60;99.90;;;;;;5053167;28;20044;-68
2022/06/10 04:43:20;;;;;;;13.27;4.10;;;15.60;99.90;;;;;;5053402;28;20104;-69
2022/06/10 04:45:49;;;;;;;10.07;3.47;;;15.70;99.90;;;;;;5054015;28;20473;-66
2022/06/10 04:48:16;;;;;;;16.27;4.88;;;15.70;99.90;;;;;;5053523;28;20061;-65
2022/06/10 04:50:42;;;;;;;11.35;3.83;;;15.80;99.90;;;;;;5053442;28;20465;-66
2022/06/10 04:53:09;;;;;;;12.50;3.42;;;15.80;99.90;;;;;;5052798;28;20021;-66
2022/06/10 04:55:34;;;;;;;13.15;3.35;;;15.90;99.90;;;;;;5052901;28;20119;-68
2022/06/10 04:58:00;;;;;;;13.50;3.33;;;15.90;99.90;;;;;;5053741;28;20436;-67
2022/06/10 05:00:34;;;;;;;11.93;2.88;;;16.00;99.90;;;;;;5052634;28;20075;-65
2022/06/10 05:03:01;;;;;;;12.10;3.72;;;16.00;99.90;;;;;;5053350;28;20081;-65
2022/06/10 05:05:26;;;;;;;14.35;2.97;;;16.00;99.90;;;;;;5053547;28;20040;-65
2022/06/10 05:07:52;;;;;;;16.02;3.30;;;16.00;99.90;;;;;;5053433;28;20390;-65
2022/06/10 05:10:18;;;;;;;11.70;3.33;;;16.10;99.90;;;;;;5051796;28;20096;-65
2022/06/10 05:12:44;;;;;;;11.15;3.50;;;16.10;99.90;;;;;;5032139;28;20421;-65
2022/06/10 05:15:15;;;;;;;8.02;2.90;;;16.10;99.90;;;;;;5041819;28;20112;-65
2022/06/10 05:17:41;;;;;;;12.50;3.65;;;16.10;99.90;;;;;;5052597;28;20025;-65
2022/06/10 05:20:08;;;;;;;10.60;2.97;;;16.20;99.90;;;;;;5052653;28;20021;-65
2022/06/10 05:22:34;;;;;;;14.80;3.67;;;16.20;99.90;;;;;;5052090;28;20048;-65
2022/06/10 05:25:00;;;;;;;11.80;2.85;;;16.20;99.90;;;;;;5052548;28;20025;-65
2022/06/10 05:27:25;;;;;;;12.43;3.75;;;16.30;99.90;;;;;;5052663;28;20030;-65
2022/06/10 05:29:51;;;;;;;13.68;3.40;;;16.20;99.90;;;;;;5052604;28;20346;-65
2022/06/10 05:32:17;;;;;;;12.02;3.28;;;16.30;99.90;;;;;;5052318;28;20082;-65
2022/06/10 05:34:46;;;;;;;13.15;3.38;;;16.30;99.90;;;;;;5052097;28;20021;-65
2022/06/10 05:37:14;;;;;;;17.92;3.38;;;16.30;99.90;;;;;;5053230;28;20021;-65
2022/06/10 05:39:40;;;;;;;13.65;3.30;;;16.40;99.90;;;;;;5052906;28;20032;-66
2022/06/10 05:42:08;;;;;;;12.23;3.17;;;16.40;99.90;;;;;;5052510;28;20083;-64
2022/06/10 05:44:36;;;;;;;11.30;3.50;;;16.50;99.90;;;;;;5052357;28;20020;-64
2022/06/10 05:47:05;;;;;;;9.60;3.70;;;16.50;99.90;;;;;;5052397;28;20106;-64
2022/06/10 05:49:30;;;;;;;10.38;2.90;;;16.70;99.90;;;;;;5052224;28;20066;-65
2022/06/10 05:51:56;;;;;;;11.88;3.65;;;16.70;99.90;;;;;;5052391;28;20017;-65
2022/06/10 05:54:22;;;;;;;12.23;3.22;;;16.80;99.90;;;;;;5052370;28;20398;-65
2022/06/10 05:56:48;;;;;;;14.48;3.35;;;16.90;99.90;;;;;;5051669;28;20420;-65
2022/06/10 05:59:14;;;;;;;10.23;2.83;;;16.90;99.90;;;;;;5052287;28;20029;-65
2022/06/10 06:01:40;;;;;;;15.20;3.53;;;16.90;99.90;;;;;;5052305;28;20037;-64
2022/06/10 06:04:05;;;;;;;14.95;3.70;;;16.90;99.90;;;;;;5052268;28;20203;-67
2022/06/10 06:06:31;;;;;;;12.38;3.00;;;16.90;99.90;;;;;;5051146;28;20035;-67
2022/06/10 06:08:57;;;;;;;10.32;3.30;;;16.90;99.90;;;;;;5050974;28;20040;-65
2022/06/10 06:11:22;;;;;;;9.15;2.67;;;16.80;99.90;;;;;;5051776;28;20029;-64
2022/06/10 06:13:48;;;;;;;12.23;2.63;;;16.90;99.90;;;;;;5052391;28;20017;-66
2022/06/10 06:16:17;;;;;;;12.63;3.15;;;16.90;99.90;;;;;;5052821;28;20035;-64
2022/06/10 06:18:43;;;;;;;12.63;3.22;;;16.90;99.90;;;;;;5052185;28;20459;-66
2022/06/10 06:21:09;;;;;;;14.55;3.38;;;16.90;99.90;;;;;;5051971;28;20028;-66
2022/06/10 06:23:35;;;;;;;11.48;3.67;;;16.90;99.90;;;;;;5051025;28;20021;-64
2022/06/10 06:26:01;;;;;;;11.80;3.45;;;17.00;99.90;;;;;;5052393;28;20461;-65
2022/06/10 06:28:27;;;;;;;14.88;3.00;;;17.10;99.90;;;;;;5049909;28;20033;-65
2022/06/10 06:30:53;;;;;;;9.27;3.20;;;17.10;99.90;;;;;;5050711;28;20132;-65
2022/06/10 06:33:19;;;;;;;8.25;3.00;;;17.10;99.90;;;;;;5048801;28;20031;-63
2022/06/10 06:35:50;;;;;;;12.73;3.35;;;17.20;99.90;;;;;;5048458;28;20025;-67
2022/06/10 06:38:16;;;;;;;8.93;2.78;;;17.20;99.90;;;;;;5052015;28;20021;-64
2022/06/10 06:40:43;;;;;;;12.45;3.20;;;17.20;99.90;;;;;;5050533;28;20032;-65
2022/06/10 06:43:09;;;;;;;9.48;2.88;;;17.30;99.90;;;;;;5048840;28;20508;-67
2022/06/10 06:45:35;;;;;;;10.70;2.60;;;17.40;99.90;;;;;;5051074;28;20017;-65
2022/06/10 06:48:07;;;;;;;14.13;3.38;;;17.50;99.90;;;;;;5051659;28;20016;-65
2022/06/10 06:50:33;;;;;;;15.90;4.13;;;17.70;99.90;;;;;;5049102;28;20113;-65
2022/06/10 06:52:59;;;;;;;9.45;2.40;;;17.80;99.90;;;;;;5050950;28;20099;-66
2022/06/10 06:55:25;;;;;;;11.77;3.20;;;17.90;99.90;;;;;;5051337;28;20024;-67
2022/06/10 06:57:51;;;;;;;11.15;2.95;;;18.00;99.90;;;;;;5052005;28;20025;-64
2022/06/10 07:00:17;;;;;;;12.57;3.28;;;18.00;99.90;;;;;;5049410;28;20021;-68
2022/06/10 07:02:43;;;;;;;14.93;3.92;;;18.10;99.90;;;;;;5051101;28;20081;-69
2022/06/10 07:05:10;;;;;;;9.25;2.50;;;18.20;99.90;;;;;;5051450;28;20076;-65
2022/06/10 07:07:36;;;;;;;12.80;3.45;;;18.30;99.90;;;;;;5051448;28;20078;-66
2022/06/10 07:10:03;;;;;;;12.93;3.20;;;18.40;99.90;;;;;;5051054;28;20028;-65
2022/06/10 07:12:28;;;;;;;12.05;3.10;;;18.50;99.90;;;;;;5051746;28;20032;-65
2022/06/10 07:14:54;;;;;;;7.97;1.73;;;18.60;99.90;;;;;;5050775;28;20025;-65
2022/06/10 07:17:20;;;;;;;11.77;3.28;;;18.70;99.90;;;;;;5051618;28;20082;-65
2022/06/10 07:19:48;;;;;;;14.45;3.25;;;18.80;99.90;;;;;;5051399;28;20027;-64
2022/06/10 07:22:15;;;;;;;12.18;2.53;;;18.80;99.90;;;;;;5050451;28;20029;-64
2022/06/10 07:24:41;;;;;;;8.90;2.50;;;18.90;99.90;;;;;;5050731;28;20426;-64
2022/06/10 07:27:07;;;;;;;15.15;2.88;;;19.00;99.90;;;;;;5045576;28;20040;-64
2022/06/10 07:29:33;;;;;;;6.40;2.03;;;18.80;99.90;;;;;;5060877;28;20029;-67
2022/06/10 07:31:58;;;;;;;16.90;3.28;;;18.70;99.90;;;;;;5053770;28;20075;-66
2022/06/10 07:34:24;;;;;;;13.27;3.33;;;18.60;99.90;;;;;;5051529;28;20025;-65
2022/06/10 07:36:49;;;;;;;11.20;3.13;;;18.50;99.90;;;;;;5051312;28;20075;-64
2022/06/10 07:39:15;;;;;;;11.52;2.63;;;18.50;99.90;;;;;;5051410;28;20031;-64
2022/06/10 07:41:56;;;;;;;10.98;2.75;;;18.60;99.90;;;;;;5053788;28;20076;-68
2022/06/10 07:44:23;;;;;;;9.70;2.55;;;18.60;99.90;;;;;;5052909;28;20063;-64
2022/06/10 07:46:51;;;;;;;16.95;3.50;;;18.60;99.90;;;;;;5067368;28;20021;-65
2022/06/10 07:49:17;;;;;;;12.13;3.72;;;18.60;99.90;;;;;;5065058;28;20090;-65
2022/06/10 07:51:43;;;;;;;9.68;3.85;;;18.70;99.90;;;;;;5066994;28;20064;-65
2022/06/10 07:54:08;;;;;;;15.77;3.80;;;18.70;99.90;;;;;;5067563;28;20056;-64
2022/06/10 07:56:34;;;;;;;14.88;4.15;;;18.70;99.90;;;;;;5066171;28;20040;-65
2022/06/10 07:59:00;;;;;;;14.73;4.38;;;18.70;99.90;;;;;;5071729;28;20015;-64
2022/06/10 08:01:28;;;;;;;11.52;3.53;;;18.60;99.90;;;;;;5069998;28;20462;-64
2022/06/10 08:03:54;;;;;;;9.55;4.22;;;18.60;99.90;;;;;;5066340;28;20342;-65
2022/06/10 08:06:23;;;;;;;12.38;5.30;;;18.50;99.90;;;;;;5065977;28;20183;-65
2022/06/10 08:08:49;;;;;;;15.02;4.13;;;18.40;99.90;;;;;;5063812;28;20103;-66
2022/06/10 08:11:15;;;;;;;13.15;3.83;;;18.50;99.90;;;;;;5070628;28;20032;-66
2022/06/10 08:13:41;;;;;;;16.10;4.25;;;18.60;99.90;;;;;;5068734;28;20473;-66
2022/06/10 08:16:08;;;;;;;15.75;4.75;;;18.90;99.90;;;;;;5060448;28;20044;-64
2022/06/10 08:18:34;;;;;;;14.82;3.85;;;19.40;99.90;;;;;;5061948;28;20466;-64
2022/06/10 08:23:45;;;;;;;12.50;3.65;;;20.70;99.90;;;;;;5057600;28;20039;-65
2022/06/10 08:26:12;;;;;;;12.88;3.58;;;21.30;99.90;;;;;;5054169;28;20032;-65
2022/06/10 08:28:40;;;;;;;13.73;4.88;;;21.40;99.90;;;;;;5053413;28;20035;-66
2022/06/10 08:31:05;;;;;;;16.15;4.85;;;21.70;99.90;;;;;;5044400;28;20083;-66
2022/06/10 08:33:32;;;;;;;9.15;3.53;;;22.00;99.90;;;;;;5053896;28;20025;-66
2022/06/10 08:35:59;;;;;;;13.68;3.20;;;22.10;99.90;;;;;;5053874;28;20029;-66
2022/06/10 08:38:25;;;;;;;10.32;2.35;;;21.90;99.90;;;;;;5053094;28;20498;-65
2022/06/10 08:41:09;;;;;;;6.93;2.80;;;21.70;99.90;;;;;;5054844;28;20096;-67
2022/06/10 08:44:10;;;;;;;14.20;4.57;;;21.20;99.90;;;;;;5053928;28;20021;-66
2022/06/10 08:46:53;;;;;;;18.10;4.70;;;20.50;99.90;;;;;;5040735;28;20040;-65
2022/06/10 08:49:37;;;;;;;16.50;5.18;;;20.10;99.90;;;;;;5043192;28;20104;-65
2022/06/10 08:52:03;;;;;;;12.43;5.20;;;20.30;99.90;;;;;;5053655;28;20036;-66
2022/06/10 08:54:51;;;;;;;15.35;5.38;;;20.90;99.90;;;;;;5049973;28;20033;-64
2022/06/10 08:57:30;;;;;;;14.65;4.20;;;21.50;99.90;;;;;;5045336;28;20021;-65
2022/06/10 08:59:57;;;;;;;13.13;4.40;;;22.00;99.90;;;;;;5053890;28;20374;-66
2022/06/10 09:02:30;;;;;;;11.23;3.85;;;22.80;99.90;;;;;;5054065;28;20120;-66
2022/06/10 09:05:15;;;;;;;8.48;2.47;;;23.50;99.90;;;;;;5054305;28;20458;-66
2022/06/10 09:07:52;;;;;;;11.02;3.40;;;23.70;99.90;;;;;;5054012;28;20017;-66
2022/06/10 09:10:35;;;;;;;14.00;3.50;;;23.40;99.90;;;;;;5052595;28;20032;-65
2022/06/10 09:13:34;;;;;;;11.52;3.15;;;23.40;99.90;;;;;;5053957;28;20020;-65
2022/06/10 09:16:25;;;;;;;10.85;3.08;;;23.50;99.90;;;;;;5054023;28;20104;-65
2022/06/10 09:19:29;;;;;;;5.32;2.45;;;23.40;99.90;;;;;;5053799;28;20047;-65
2022/06/10 09:22:03;;;;;;;7.93;2.80;;;23.60;99.90;;;;;;5053006;28;20463;-65
2022/06/10 09:24:43;;;;;;;8.50;3.47;;;23.80;99.90;;;;;;5053644;28;20079;-65
2022/06/10 09:27:12;;;;;;;9.27;2.00;;;24.00;99.90;;;;;;5053888;28;20139;-65
2022/06/10 09:29:40;;;;;;;5.47;1.60;;;24.10;99.90;;;;;;5053206;28;20043;-65
2022/06/10 09:32:13;;;;;;;6.55;1.98;;;24.20;99.90;;;;;;5053694;28;20021;-65
2022/06/10 09:34:59;;;;;;;6.68;2.72;;;24.60;99.90;;;;;;5052929;28;20327;-65
2022/06/10 09:37:31;;;;;;;7.40;2.13;;;24.80;99.90;;;;;;5053704;28;20036;-65
2022/06/10 09:43:11;;;;;;;3.78;1.35;;;26.00;99.90;;;;;;5053215;28;20198;-65
2022/06/10 09:45:41;;;;;;;6.32;1.83;;;26.40;99.30;;;;;;5041593;28;20017;-68
2022/06/10 09:48:26;;;;;;;3.92;1.02;;;26.60;99.10;;;;;;5053234;28;20025;-66
2022/06/10 09:51:14;;;;;;;6.88;1.63;;;27.20;97.70;;;;;;5056203;28;20023;-65
2022/06/10 09:54:16;;;;;;;5.82;2.13;;;28.00;96.70;;;;;;5053123;28;20025;-64
2022/06/10 09:57:03;;;;;;;4.93;1.50;;;28.40;94.40;;;;;;5052797;28;20021;-63
2022/06/10 09:59:49;;;;;;;3.42;1.55;;;28.80;93.20;;;;;;5062833;28;20024;-65
2022/06/10 10:02:17;;;;;;;7.18;1.45;;;28.90;92.40;;;;;;5052544;28;20045;-68
2022/06/10 10:04:57;;;;;;;6.85;1.52;;;29.00;92.50;;;;;;5051675;28;20029;-68
2022/06/10 10:07:28;;;;;;;3.72;0.95;;;29.20;91.50;;;;;;5052838;28;20087;-66
2022/06/10 10:10:17;;;;;;;3.15;1.42;;;29.40;90.20;;;;;;5052500;28;20017;-69
2022/06/10 10:13:07;;;;;;;7.82;2.03;;;29.70;90.20;;;;;;5052749;28;20052;-65
2022/06/10 10:15:51;;;;;;;6.10;1.50;;;29.70;90.00;;;;;;5052134;28;20021;-66
2022/06/10 10:18:37;;;;;;;4.97;1.55;;;29.60;88.00;;;;;;5052247;28;20107;-67
2022/06/10 10:21:13;;;;;;;5.15;1.88;;;29.30;88.20;;;;;;5052273;28;20029;-66
2022/06/10 10:23:41;;;;;;;9.32;1.80;;;29.20;88.50;;;;;;5051455;28;20021;-65
2022/06/10 10:26:22;;;;;;;9.75;2.00;;;29.00;89.00;;;;;;5051783;28;20025;-66
2022/06/10 10:28:53;;;;;;;7.90;2.00;;;29.50;87.90;;;;;;5049531;28;20021;-66
2022/06/10 10:31:25;;;;;;;6.03;1.83;;;29.90;88.50;;;;;;5050115;28;20471;-65
2022/06/10 10:33:52;;;;;;;7.93;1.65;;;30.00;89.10;;;;;;5053193;28;20410;-66
2022/06/10 10:36:46;;;;;;;7.85;1.95;;;30.00;89.20;;;;;;5050642;28;20335;-65
2022/06/10 10:39:17;;;;;;;10.75;2.40;;;30.40;89.80;;;;;;5049028;28;20041;-65
2022/06/10 10:41:47;;;;;;;10.13;2.57;;;31.30;87.00;;;;;;5051361;28;20068;-65
2022/06/10 10:44:24;;;;;;;7.43;2.47;;;31.30;85.00;;;;;;5042506;28;20048;-67
2022/06/10 10:47:01;;;;;;;10.93;2.60;;;31.10;83.80;;;;;;5050638;28;20100;-65
2022/06/10 10:49:34;;;;;;;9.93;2.08;;;30.50;84.00;;;;;;5052315;28;20118;-65
2022/06/10 10:52:08;;;;;;;15.18;2.30;;;30.30;84.20;;;;;;5051883;28;20024;-66
2022/06/10 10:54:37;;;;;;;12.57;2.25;;;30.60;83.40;;;;;;5052121;28;20036;-69
2022/06/10 10:57:25;;;;;;;7.20;2.45;;;30.30;84.30;;;;;;5051146;28;20021;-65
2022/06/10 11:00:06;;;;;;;8.85;2.15;;;30.20;83.30;;;;;;5052641;28;20036;-65
2022/06/10 11:02:40;;;;;;;7.10;2.30;;;29.80;84.40;;;;;;5052222;28;20123;-65
2022/06/10 11:05:26;;;;;;;9.82;2.33;;;30.20;84.60;;;;;;5052239;28;20065;-67
2022/06/10 11:08:25;;;;;;;8.18;2.25;;;30.20;83.00;;;;;;5052141;28;20159;-63
2022/06/10 11:10:55;;;;;;;6.32;1.85;;;29.80;83.60;;;;;;5052132;28;20025;-64
2022/06/10 11:13:41;;;;;;;10.13;2.42;;;29.60;83.40;;;;;;5052328;28;20126;-66
2022/06/10 11:16:29;;;;;;;9.55;2.40;;;29.60;84.10;;;;;;5055856;28;20079;-66
2022/06/10 11:19:17;;;;;;;8.13;2.22;;;29.50;84.40;;;;;;5055174;28;20023;-65
2022/06/10 11:22:03;;;;;;;10.02;2.33;;;29.20;83.90;;;;;;5055677;28;20068;-64
2022/06/10 11:24:30;;;;;;;7.97;2.50;;;29.50;84.70;;;;;;5056167;28;20032;-66
2022/06/10 11:26:58;;;;;;;9.00;2.10;;;29.90;83.50;;;;;;5055594;28;20342;-65
2022/06/10 11:29:25;;;;;;;10.52;2.40;;;29.80;83.20;;;;;;5055713;28;20025;-67
2022/06/10 11:31:56;;;;;;;8.10;2.10;;;30.00;82.80;;;;;;5046549;28;20091;-65
2022/06/10 11:34:38;;;;;;;10.93;2.47;;;29.90;83.00;;;;;;5035740;28;20056;-65
2022/06/10 11:37:26;;;;;;;10.40;3.22;;;29.40;83.00;;;;;;5072267;28;20029;-67
2022/06/10 11:40:17;;;;;;;13.00;2.72;;;29.70;83.80;;;;;;5055630;28;20083;-66
2022/06/10 11:42:57;;;;;;;13.52;2.55;;;29.70;83.50;;;;;;5050185;28;20052;-66
2022/06/10 11:45:27;;;;;;;7.30;2.45;;;29.60;83.30;;;;;;5035202;28;20032;-66
2022/06/10 11:47:59;;;;;;;12.00;2.20;;;29.60;83.30;;;;;;5049913;28;20049;-66
2022/06/10 11:50:41;;;;;;;6.65;1.80;;;29.90;83.50;;;;;;5055076;28;20021;-65
2022/06/10 11:53:13;;;;;;;;;;;29.80;82.30;;;;;;5051860;28;20048;-65
2022/06/10 11:55:42;;;;;;;9.07;2.40;;;29.70;83.10;;;;;;5053480;28;19900;-64
2022/06/10 12:01:27;;;;;;;11.38;2.25;;;29.60;82.80;;;;;;5036541;28;20220;-64
2022/06/10 12:03:55;;;;;;;11.43;2.58;;;30.50;81.20;;;;;;5038721;28;20035;-66
2022/06/10 12:06:29;;;;;;;11.35;2.13;;;30.80;80.10;;;;;;5037627;28;20029;-65
2022/06/10 12:09:04;;;;;;;7.28;2.17;;;30.80;79.40;;;;;;5060829;28;20031;-65
2022/06/10 12:11:45;;;;;;;14.18;2.20;;;30.30;79.80;;;;;;5038461;28;20047;-68
2022/06/10 12:14:20;;;;;;;7.78;1.45;;;30.20;79.40;;;;;;5043093;28;20424;-66
2022/06/10 12:16:50;;;;;;;11.02;2.08;;;29.90;78.80;;;;;;5047907;28;20033;-67
2022/06/10 12:19:27;;;;;;;10.80;2.17;;;29.10;80.50;;;;;;5041596;28;20066;-63
2022/06/10 12:21:53;;;;;;;10.52;2.22;;;28.60;81.50;;;;;;5040850;28;20079;-64
2022/06/10 12:24:20;;;;;;;10.60;2.28;;;27.80;83.50;;;;;;5043260;28;20364;-65
2022/06/10 12:27:02;;;;;;;11.57;2.28;;;27.30;85.30;;;;;;5037801;28;20478;-66
2022/06/10 12:29:43;;;;;;;9.45;2.30;;;27.20;86.00;;;;;;5047373;28;20060;-65
2022/06/10 12:32:36;;;;;;;8.93;2.15;;;27.00;87.10;;;;;;5047691;28;20044;-65
2022/06/10 12:35:28;;;;;;;9.63;2.38;;;27.00;88.40;;;;;;5040464;28;20042;-65
2022/06/10 12:37:56;;;;;;;8.80;2.30;;;27.10;86.70;;;;;;5038513;28;20063;-67
2022/06/10 12:40:40;;;;;;;12.40;3.13;;;27.00;87.50;;;;;;5034588;28;20038;-65
2022/06/10 12:43:06;;;;;;;7.25;1.90;;;27.00;87.80;;;;;;5047995;28;20025;-65
2022/06/10 12:45:37;;;;;;;9.88;1.65;;;27.20;86.90;;;;;;5054079;28;20017;-65
2022/06/10 12:48:15;;;;;;;6.93;1.83;;;27.20;86.50;;;;;;5054273;28;20331;-64
2022/06/10 12:50:52;;;;;;;9.07;2.60;;;26.90;87.80;;;;;;5054416;28;20370;-66
2022/06/10 12:53:44;;;;;;;7.13;1.77;;;26.60;88.60;;;;;;5054055;28;20079;-65
2022/06/10 12:56:23;;;;;;;7.72;2.30;;;26.50;87.80;;;;;;5048239;28;20027;-68
2022/06/10 12:59:20;;;;;;;9.15;1.70;;;26.50;88.70;;;;;;5071131;28;20024;-65
2022/06/10 13:01:46;;;;;;;6.10;1.52;;;26.50;88.70;;;;;;5053953;28;20112;-62
2022/06/10 13:04:14;;;;;;;6.13;1.73;;;26.40;88.60;;;;;;5062905;28;20113;-65
2022/06/10 13:06:42;;;;;;;5.35;1.40;;;26.20;88.80;;;;;;5053336;28;20032;-65
2022/06/10 13:09:11;;;;;;;6.65;1.60;;;26.00;89.70;;;;;;5037104;28;20028;-63
2022/06/10 13:11:47;;;;;;;8.82;2.05;;;25.80;90.50;;;;;;5047309;28;20116;-65
2022/06/10 13:14:33;;;;;;;7.90;1.30;;;25.60;91.40;;;;;;5071776;28;20020;-66
2022/06/10 13:16:58;;;;;;;5.80;1.40;;;25.50;91.70;;;;;;5063389;28;20517;-64
2022/06/10 13:19:36;;;;;;;7.35;1.33;;;25.40;91.80;;;;;;5051932;28;20162;-64
2022/06/10 13:22:19;;;;;;;9.27;1.67;;;25.30;92.00;;;;;;5053508;28;20102;-64
2022/06/10 13:24:54;;;;;;;8.55;2.10;;;25.20;92.00;;;;;;5053509;28;20028;-65